createdAt,value
2022-12-26T00:01:12.310Z,8.86
2022-12-26T00:03:39.335Z,8.97
2022-12-26T00:06:12.324Z,8.96
2022-12-26T00:08:39.235Z,8.97
2022-12-26T00:11:05.938Z,8.96
2022-12-26T00:13:39.914Z,8.99
2022-12-26T00:16:10.774Z,9.10
2022-12-26T00:18:37.734Z,9.17
2022-12-26T00:21:04.739Z,9.11
2022-12-26T00:23:31.716Z,9.10
2022-12-26T00:26:02.424Z,9.20
2022-12-26T00:28:29.081Z,9.26
2022-12-26T00:30:55.750Z,9.28
2022-12-26T00:33:23.592Z,9.30
2022-12-26T00:35:50.301Z,9.23
2022-12-26T00:38:17.007Z,9.23
2022-12-26T00:40:43.528Z,9.22
2022-12-26T00:43:10.199Z,9.27
2022-12-26T00:45:37.013Z,9.16
2022-12-26T00:48:03.863Z,9.09
2022-12-26T00:50:34.867Z,9.13
2022-12-26T00:53:01.922Z,9.13
2022-12-26T00:55:28.499Z,9.11
2022-12-26T00:57:55.233Z,9.08
2022-12-26T01:00:21.992Z,9.04
2022-12-26T01:02:48.622Z,8.98
2022-12-26T01:05:15.795Z,8.98
2022-12-26T01:08:20.165Z,8.93
2022-12-26T01:10:30.639Z,8.97
2022-12-26T01:12:57.159Z,8.91
2022-12-26T01:15:23.762Z,8.88
2022-12-26T01:17:50.446Z,8.96
2022-12-26T01:20:16.984Z,8.96
2022-12-26T01:22:45.118Z,8.97
2022-12-26T01:25:12.373Z,8.98
2022-12-26T01:27:38.987Z,9.00
2022-12-26T01:30:07.096Z,9.05
2022-12-26T01:32:33.643Z,9.09
2022-12-26T01:35:00.174Z,9.00
2022-12-26T01:37:26.714Z,9.00
2022-12-26T01:39:54.599Z,9.02
2022-12-26T01:42:23.409Z,9.05
2022-12-26T01:44:59.429Z,9.13
2022-12-26T01:47:40.986Z,9.12
2022-12-26T01:50:21.193Z,9.04
2022-12-26T01:52:49.211Z,9.00
2022-12-26T01:55:21.549Z,9.14
2022-12-26T01:57:59.253Z,9.06
2022-12-26T02:00:26.038Z,9.03
2022-12-26T02:02:53.572Z,9.03
2022-12-26T02:05:20.425Z,9.05
2022-12-26T02:07:47.277Z,9.05
2022-12-26T02:10:22.608Z,9.04
2022-12-26T02:12:50.317Z,9.03
2022-12-26T02:15:17.810Z,8.97
2022-12-26T02:17:44.691Z,8.86
2022-12-26T02:20:18.244Z,8.83
2022-12-26T02:23:07.211Z,8.76
2022-12-26T02:26:02.943Z,8.75
2022-12-26T02:28:49.604Z,8.73
2022-12-26T02:31:21.641Z,8.75
2022-12-26T02:34:03.985Z,8.81
2022-12-26T02:36:59.540Z,8.79
2022-12-26T02:39:47.113Z,8.76
2022-12-26T02:42:29.181Z,8.74
2022-12-26T02:45:02.149Z,8.79
2022-12-26T02:47:36.762Z,8.78
2022-12-26T02:50:14.611Z,8.89
2022-12-26T02:52:55.799Z,8.87
2022-12-26T02:55:26.816Z,8.80
2022-12-26T02:58:02.000Z,8.82
2022-12-26T03:00:28.648Z,8.85
2022-12-26T03:03:01.737Z,8.89
2022-12-26T03:05:32.531Z,8.82
2022-12-26T03:08:01.103Z,8.82
2022-12-26T03:10:33.128Z,8.88
2022-12-26T03:13:05.294Z,8.92
2022-12-26T03:15:34.356Z,8.95
2022-12-26T03:18:06.541Z,9.07
2022-12-26T03:20:35.990Z,9.02
2022-12-26T03:23:07.379Z,9.07
2022-12-26T03:25:42.117Z,9.05
2022-12-26T03:28:08.934Z,9.03
2022-12-26T03:30:35.773Z,9.03
2022-12-26T03:33:04.178Z,9.10
2022-12-26T03:35:33.293Z,9.11
2022-12-26T03:38:04.581Z,9.05
2022-12-26T03:40:51.511Z,9.06
2022-12-26T03:43:32.004Z,9.11
2022-12-26T03:46:11.947Z,9.19
2022-12-26T03:48:50.959Z,9.13
2022-12-26T03:51:25.100Z,9.02
2022-12-26T03:53:59.039Z,9.05
2022-12-26T03:56:33.327Z,9.11
2022-12-26T03:59:07.809Z,9.10
2022-12-26T04:01:37.583Z,9.17
2022-12-26T04:04:09.318Z,9.11
2022-12-26T04:06:49.019Z,9.07
2022-12-26T04:09:21.975Z,9.06
2022-12-26T04:11:48.551Z,8.97
2022-12-26T04:14:29.723Z,9.00
2022-12-26T04:17:02.668Z,8.90
2022-12-26T04:19:54.880Z,8.96
2022-12-26T04:22:28.046Z,8.82
2022-12-26T04:25:07.636Z,8.80
2022-12-26T04:27:34.605Z,8.76
2022-12-26T04:30:01.377Z,8.69
2022-12-26T04:32:36.292Z,8.71
2022-12-26T04:35:07.708Z,8.59
2022-12-26T04:37:38.093Z,8.60
2022-12-26T04:40:10.847Z,8.56
2022-12-26T04:42:39.585Z,8.59
2022-12-26T04:45:08.762Z,8.66
2022-12-26T04:47:35.465Z,8.59
2022-12-26T04:50:07.002Z,8.60
2022-12-26T04:52:33.599Z,8.70
2022-12-26T04:55:00.303Z,8.77
2022-12-26T04:57:26.994Z,8.76
2022-12-26T04:59:53.726Z,8.80
2022-12-26T05:02:20.280Z,8.79
2022-12-26T05:04:47.011Z,8.86
2022-12-26T05:07:19.313Z,8.78
2022-12-26T05:09:49.765Z,8.81
2022-12-26T05:12:16.357Z,8.76
2022-12-26T05:14:42.935Z,8.79
2022-12-26T05:17:12.213Z,8.92
2022-12-26T05:19:38.885Z,8.94
2022-12-26T05:22:05.726Z,9.00
2022-12-26T05:24:37.357Z,8.99
2022-12-26T05:27:04.203Z,8.98
2022-12-26T05:29:30.789Z,9.01
2022-12-26T05:31:57.343Z,9.07
2022-12-26T05:34:23.885Z,9.02
2022-12-26T05:36:53.178Z,9.06
2022-12-26T05:39:19.689Z,9.05
2022-12-26T05:41:47.608Z,9.07
2022-12-26T05:44:14.756Z,9.07
2022-12-26T05:46:41.500Z,8.98
2022-12-26T05:49:09.281Z,8.99
2022-12-26T05:51:36.347Z,8.98
2022-12-26T05:54:03.008Z,9.03
2022-12-26T05:56:29.602Z,9.00
2022-12-26T05:58:59.257Z,8.99
2022-12-26T06:01:27.752Z,8.92
2022-12-26T06:03:56.722Z,8.84
2022-12-26T06:06:24.722Z,8.81
2022-12-26T06:08:52.835Z,8.72
2022-12-26T06:11:20.258Z,8.73
2022-12-26T06:13:46.827Z,8.71
2022-12-26T06:16:16.745Z,8.69
2022-12-26T06:18:44.120Z,8.73
2022-12-26T06:21:12.913Z,8.73
2022-12-26T06:23:40.053Z,8.68
2022-12-26T06:26:07.232Z,8.63
2022-12-26T06:28:34.783Z,8.59
2022-12-26T06:31:05.576Z,8.67
2022-12-26T06:33:34.102Z,8.64
2022-12-26T06:36:05.467Z,8.70
2022-12-26T06:38:32.005Z,8.72
2022-12-26T06:40:58.731Z,8.72
2022-12-26T06:43:25.335Z,8.70
2022-12-26T06:45:55.311Z,8.70
2022-12-26T06:48:23.021Z,8.73
2022-12-26T06:50:51.054Z,8.75
2022-12-26T06:53:17.564Z,8.72
2022-12-26T06:55:44.283Z,8.74
2022-12-26T06:58:10.817Z,8.73
2022-12-26T07:00:37.515Z,8.76
2022-12-26T07:03:04.842Z,8.78
2022-12-26T07:05:35.238Z,8.80
2022-12-26T07:08:03.596Z,8.84
2022-12-26T07:10:34.260Z,8.79
2022-12-26T07:13:00.824Z,8.85
2022-12-26T07:15:27.380Z,8.93
2022-12-26T07:17:54.101Z,8.93
2022-12-26T07:20:20.617Z,8.89
2022-12-26T07:22:47.168Z,8.83
2022-12-26T07:25:15.305Z,8.81
2022-12-26T07:27:41.794Z,8.85
2022-12-26T07:30:09.613Z,8.92
2022-12-26T07:32:36.297Z,8.88
2022-12-26T07:35:03.064Z,8.93
2022-12-26T07:37:29.585Z,8.91
2022-12-26T07:39:59.085Z,9.00
2022-12-26T07:42:27.397Z,9.00
2022-12-26T07:44:54.115Z,8.95
2022-12-26T07:47:20.785Z,8.95
2022-12-26T07:49:47.333Z,8.94
2022-12-26T07:52:13.870Z,8.91
2022-12-26T07:54:40.588Z,8.95
2022-12-26T07:57:46.375Z,8.92
2022-12-26T07:59:55.200Z,8.96
2022-12-26T08:02:21.976Z,8.93
2022-12-26T08:04:48.873Z,8.90
2022-12-26T08:07:15.420Z,8.85
2022-12-26T08:09:42.104Z,8.86
2022-12-26T08:12:08.831Z,8.84
2022-12-26T08:14:37.195Z,8.90
2022-12-26T08:17:05.363Z,8.59
2022-12-26T08:19:32.203Z,7.44
2022-12-26T08:21:58.934Z,6.86
2022-12-26T08:24:25.501Z,6.62
2022-12-26T08:26:52.175Z,6.54
2022-12-26T08:29:18.731Z,6.55
2022-12-26T08:31:45.448Z,6.64
2022-12-26T08:34:15.937Z,6.69
2022-12-26T08:36:42.454Z,6.73
2022-12-26T08:39:09.253Z,6.75
2022-12-26T08:41:36.011Z,6.75
2022-12-26T08:44:26.224Z,6.73
2022-12-26T08:46:49.171Z,6.70
2022-12-26T08:49:17.258Z,6.66
2022-12-26T08:51:43.804Z,6.62
2022-12-26T08:54:11.145Z,6.61
2022-12-26T08:56:38.177Z,6.59
2022-12-26T08:59:04.730Z,6.61
2022-12-26T09:01:32.045Z,6.64
2022-12-26T09:04:01.162Z,6.64
2022-12-26T09:06:31.319Z,6.63
2022-12-26T09:08:59.207Z,6.63
2022-12-26T09:11:26.459Z,6.63
2022-12-26T09:13:54.301Z,6.65
2022-12-26T09:16:22.988Z,6.66
2022-12-26T09:18:54.212Z,6.65
2022-12-26T09:21:21.006Z,6.67
2022-12-26T09:23:48.939Z,6.72
2022-12-26T09:26:18.179Z,6.72
2022-12-26T09:28:45.726Z,6.72
2022-12-26T09:31:15.208Z,6.78
2022-12-26T09:33:42.296Z,6.78
2022-12-26T09:36:14.804Z,6.74
2022-12-26T09:38:42.462Z,6.76
2022-12-26T09:41:22.139Z,6.75
2022-12-26T09:43:58.732Z,6.77
2022-12-26T09:46:32.033Z,6.75
2022-12-26T09:49:03.196Z,6.73
2022-12-26T09:51:33.339Z,6.68
2022-12-26T09:54:01.888Z,6.65
2022-12-26T09:59:21.426Z,6.56
2022-12-26T10:01:48.114Z,6.55
2022-12-26T10:04:28.435Z,6.56
2022-12-26T10:07:06.075Z,6.60
2022-12-26T10:09:52.240Z,6.65
2022-12-26T10:12:35.840Z,6.73
2022-12-26T10:15:11.599Z,6.80
2022-12-26T10:17:44.420Z,6.84
2022-12-26T10:20:22.363Z,6.90
2022-12-26T10:23:15.493Z,6.94
2022-12-26T10:25:46.796Z,6.96
2022-12-26T10:28:28.130Z,6.98
2022-12-26T10:30:58.250Z,7.03
2022-12-26T10:33:36.855Z,7.13
2022-12-26T10:36:04.325Z,7.20
2022-12-26T10:38:36.527Z,7.32
2022-12-26T10:41:09.083Z,7.38
2022-12-26T10:43:39.467Z,7.43
2022-12-26T10:46:25.637Z,7.46
2022-12-26T10:48:53.494Z,7.51
2022-12-26T10:51:20.049Z,7.54
2022-12-26T10:53:50.162Z,7.59
2022-12-26T10:56:18.485Z,7.65
2022-12-26T10:58:59.952Z,7.69
2022-12-26T11:01:35.892Z,7.75
2022-12-26T11:04:04.891Z,7.73
2022-12-26T11:06:33.897Z,7.68
2022-12-26T11:09:00.572Z,7.70
2022-12-26T11:11:30.214Z,7.69
2022-12-26T11:14:03.142Z,7.72
2022-12-26T11:16:33.770Z,7.75
2022-12-26T11:19:00.649Z,7.86
2022-12-26T11:21:29.769Z,7.93
2022-12-26T11:24:17.182Z,8.01
2022-12-26T11:26:43.881Z,8.06
2022-12-26T11:29:13.979Z,8.10
2022-12-26T11:31:43.155Z,8.15
2022-12-26T11:34:17.239Z,8.17
2022-12-26T11:36:47.779Z,8.18
2022-12-26T11:39:22.698Z,8.20
2022-12-26T11:41:49.531Z,8.25
2022-12-26T11:44:22.152Z,8.25
2022-12-26T11:46:53.339Z,8.27
2022-12-26T11:49:25.044Z,8.21
2022-12-26T11:51:58.819Z,8.22
2022-12-26T11:54:35.500Z,8.20
2022-12-26T11:57:12.539Z,8.19
2022-12-26T11:59:40.575Z,8.19
2022-12-26T12:02:21.510Z,8.20
2022-12-26T12:04:50.433Z,8.20
2022-12-26T12:07:30.272Z,8.19
2022-12-26T12:10:07.251Z,8.16
2022-12-26T12:12:41.584Z,8.16
2022-12-26T12:15:18.141Z,8.18
2022-12-26T12:17:54.033Z,8.27
2022-12-26T12:20:32.415Z,8.32
2022-12-26T12:23:24.091Z,8.39
2022-12-26T12:26:02.408Z,8.48
2022-12-26T12:28:47.546Z,8.55
2022-12-26T12:31:29.160Z,8.65
2022-12-26T12:34:05.899Z,8.73
2022-12-26T12:36:38.893Z,8.82
2022-12-26T12:39:11.599Z,8.88
2022-12-26T12:41:59.594Z,8.91
2022-12-26T12:44:35.846Z,8.93
2022-12-26T12:47:16.117Z,8.84
2022-12-26T12:49:53.554Z,8.86
2022-12-26T12:52:33.547Z,8.82
2022-12-26T12:55:23.647Z,8.76
2022-12-26T12:57:56.232Z,8.81
2022-12-26T13:00:26.849Z,8.82
2022-12-26T13:02:59.497Z,8.91
2022-12-26T13:05:35.449Z,9.00
2022-12-26T13:08:06.887Z,8.99
2022-12-26T13:10:37.736Z,9.00
2022-12-26T13:13:12.687Z,9.00
2022-12-26T13:15:44.307Z,9.01
2022-12-26T13:18:17.173Z,8.99
2022-12-26T13:20:48.539Z,8.96
2022-12-26T13:23:22.053Z,8.98
2022-12-26T13:26:01.518Z,8.91
2022-12-26T13:28:38.009Z,8.91
2022-12-26T13:31:04.905Z,8.80
2022-12-26T13:33:33.822Z,8.81
2022-12-26T13:36:02.366Z,8.78
2022-12-26T13:39:02.223Z,8.77
2022-12-26T13:41:31.188Z,8.81
2022-12-26T13:44:02.656Z,8.82
2022-12-26T13:46:37.030Z,8.83
2022-12-26T13:49:05.365Z,8.81
2022-12-26T13:51:58.434Z,8.81
2022-12-26T13:54:27.617Z,8.78
2022-12-26T13:57:24.325Z,8.80
2022-12-26T14:00:16.652Z,8.76
2022-12-26T14:03:23.235Z,8.71
2022-12-26T14:06:16.569Z,8.71
2022-12-26T14:08:58.025Z,8.70
2022-12-26T14:11:42.678Z,8.62
2022-12-26T14:14:20.052Z,8.59
2022-12-26T14:16:54.979Z,8.57
2022-12-26T14:19:38.839Z,8.54
2022-12-26T14:22:14.584Z,8.50
2022-12-26T14:24:53.901Z,8.52
2022-12-26T14:27:32.738Z,8.46
2022-12-26T14:30:17.342Z,8.41
2022-12-26T14:32:51.416Z,8.37
2022-12-26T14:35:28.080Z,8.37
2022-12-26T14:38:05.260Z,8.34
2022-12-26T14:40:35.187Z,8.33
2022-12-26T14:43:31.803Z,8.35
2022-12-26T14:46:05.033Z,8.29
2022-12-26T14:48:56.964Z,8.23
2022-12-26T14:51:32.558Z,8.19
2022-12-26T14:54:37.897Z,8.23
2022-12-26T14:57:44.266Z,8.24
2022-12-26T15:00:26.272Z,8.19
2022-12-26T15:03:24.518Z,8.16
2022-12-26T15:05:51.914Z,8.13
2022-12-26T15:08:48.135Z,8.10
2022-12-26T15:11:44.271Z,8.11
2022-12-26T15:14:33.267Z,8.08
2022-12-26T15:17:15.101Z,8.09
2022-12-26T15:20:19.178Z,8.08
2022-12-26T15:23:19.821Z,8.05
2022-12-26T15:26:05.353Z,8.07
2022-12-26T15:29:08.864Z,8.02
2022-12-26T15:32:09.771Z,8.00
2022-12-26T15:34:50.421Z,7.97
2022-12-26T15:37:41.357Z,7.96
2022-12-26T15:40:14.606Z,7.92
2022-12-26T15:42:55.602Z,7.90
2022-12-26T15:45:34.712Z,7.91
2022-12-26T15:48:06.659Z,7.85
2022-12-26T15:50:45.726Z,7.83
2022-12-26T15:53:23.831Z,7.87
2022-12-26T15:56:10.082Z,7.63
2022-12-26T15:59:00.115Z,7.26
2022-12-26T16:01:40.110Z,7.04
2022-12-26T16:04:12.513Z,6.95
2022-12-26T16:06:52.387Z,6.75
2022-12-26T16:09:32.312Z,6.64
2022-12-26T16:12:00.790Z,6.63
2022-12-26T16:14:32.219Z,6.55
2022-12-26T16:17:22.138Z,6.40
2022-12-26T16:19:50.440Z,6.18
2022-12-26T16:22:30.158Z,5.92
2022-12-26T16:24:57.020Z,5.75
2022-12-26T16:27:25.214Z,5.60
2022-12-26T16:29:56.126Z,5.54
2022-12-26T16:32:29.852Z,5.48
2022-12-26T16:34:58.094Z,5.46
2022-12-26T16:37:26.834Z,5.46
2022-12-26T16:40:18.232Z,5.44
2022-12-26T16:42:54.431Z,5.42
2022-12-26T16:45:23.401Z,5.37
2022-12-26T16:47:52.532Z,5.35
2022-12-26T16:50:21.621Z,5.31
2022-12-26T16:52:49.028Z,5.31
2022-12-26T16:55:34.017Z,5.28
2022-12-26T16:58:04.538Z,5.26
2022-12-26T17:00:31.221Z,5.25
2022-12-26T17:03:00.916Z,5.24
2022-12-26T17:05:30.195Z,5.22
2022-12-26T17:07:59.822Z,5.23
2022-12-26T17:10:30.003Z,5.26
2022-12-26T17:12:59.246Z,5.30
2022-12-26T17:15:28.223Z,5.30
2022-12-26T17:17:54.882Z,5.32
2022-12-26T17:20:34.863Z,5.32
2022-12-26T17:23:33.041Z,5.35
2022-12-26T17:26:17.750Z,5.37
2022-12-26T17:28:44.340Z,5.37
2022-12-26T17:31:13.550Z,5.43
2022-12-26T17:33:44.193Z,5.42
2022-12-26T17:39:11.458Z,5.40
2022-12-26T17:41:42.294Z,5.43
2022-12-26T17:44:33.186Z,5.43
2022-12-26T17:47:01.876Z,5.45
2022-12-26T17:49:28.549Z,5.42
2022-12-26T17:52:01.775Z,5.40
2022-12-26T17:54:28.766Z,5.39
2022-12-26T17:56:55.476Z,5.37
2022-12-26T17:59:22.050Z,5.40
2022-12-26T18:01:48.874Z,5.42
2022-12-26T18:04:15.514Z,5.44
2022-12-26T18:06:42.230Z,5.43
2022-12-26T18:09:23.755Z,5.44
2022-12-26T18:11:50.981Z,5.48
2022-12-26T18:14:17.834Z,5.48
2022-12-26T18:16:44.946Z,5.48
2022-12-26T18:19:14.458Z,5.44
2022-12-26T18:21:41.247Z,5.45
2022-12-26T18:24:07.946Z,5.38
2022-12-26T18:26:36.609Z,5.34
2022-12-26T18:29:03.667Z,5.32
2022-12-26T18:31:30.328Z,5.34
2022-12-26T18:33:57.629Z,5.30
2022-12-26T18:36:30.634Z,5.28
2022-12-26T18:38:57.500Z,5.31
2022-12-26T18:41:24.045Z,5.27
2022-12-26T18:43:52.040Z,5.11
2022-12-26T18:46:20.534Z,5.00
2022-12-26T18:48:47.732Z,4.86
2022-12-26T18:51:14.369Z,4.77
2022-12-26T18:53:41.079Z,4.67
2022-12-26T18:56:12.204Z,4.61
2022-12-26T18:58:38.755Z,4.57
2022-12-26T19:01:07.405Z,4.52
2022-12-26T19:03:34.112Z,4.52
2022-12-26T19:06:00.801Z,4.49
2022-12-26T19:08:27.572Z,4.48
2022-12-26T19:10:54.137Z,4.45
2022-12-26T19:13:20.720Z,4.41
2022-12-26T19:15:47.798Z,4.39
2022-12-26T19:18:15.871Z,4.36
2022-12-26T19:20:44.561Z,4.35
2022-12-26T19:23:11.400Z,4.32
2022-12-26T19:25:38.024Z,4.33
2022-12-26T19:28:04.839Z,4.33
2022-12-26T19:30:36.877Z,4.33
2022-12-26T19:33:05.489Z,4.36
2022-12-26T19:35:33.958Z,4.42
2022-12-26T19:38:00.602Z,4.53
2022-12-26T19:40:27.161Z,4.66
2022-12-26T19:42:53.777Z,4.64
2022-12-26T19:45:20.460Z,4.64
2022-12-26T19:47:47.187Z,4.63
2022-12-26T19:50:14.144Z,4.62
2022-12-26T19:52:42.273Z,4.61
2022-12-26T19:55:11.521Z,4.58
2022-12-26T19:57:38.325Z,4.52
2022-12-26T20:00:06.327Z,4.50
2022-12-26T20:02:33.076Z,4.47
2022-12-26T20:04:59.729Z,4.45
2022-12-26T20:07:26.549Z,4.42
2022-12-26T20:09:54.470Z,4.44
2022-12-26T20:12:21.233Z,4.42
2022-12-26T20:14:47.828Z,4.38
2022-12-26T20:17:14.657Z,4.39
2022-12-26T20:19:41.282Z,4.35
2022-12-26T20:22:07.898Z,4.30
2022-12-26T20:24:35.058Z,4.26
2022-12-26T20:27:03.905Z,4.22
2022-12-26T20:29:30.792Z,4.18
2022-12-26T20:31:58.349Z,4.11
2022-12-26T20:34:25.866Z,4.04
2022-12-26T20:36:52.427Z,3.91
2022-12-26T20:39:19.717Z,3.84
2022-12-26T20:41:46.770Z,3.75
2022-12-26T20:44:15.290Z,3.65
2022-12-26T20:46:42.739Z,3.54
2022-12-26T20:49:09.316Z,3.44
2022-12-26T20:51:38.158Z,3.37
2022-12-26T20:54:06.244Z,3.29
2022-12-26T20:56:32.895Z,3.21
2022-12-26T20:58:59.785Z,3.12
2022-12-26T21:01:28.469Z,3.02
2022-12-26T21:03:56.111Z,2.93
2022-12-26T21:06:26.224Z,2.84
2022-12-26T21:08:53.566Z,2.80
2022-12-26T21:11:22.532Z,2.78
2022-12-26T21:13:50.879Z,2.73
2022-12-26T21:16:20.002Z,2.68
2022-12-26T21:18:48.259Z,2.68
2022-12-26T21:21:16.659Z,2.67
2022-12-26T21:23:43.593Z,2.69
2022-12-26T21:26:10.565Z,2.67
2022-12-26T21:28:39.214Z,2.61
2022-12-26T21:31:06.982Z,2.61
2022-12-26T21:33:36.791Z,2.57
2022-12-26T21:36:13.577Z,2.51
2022-12-26T21:38:40.839Z,2.49
2022-12-26T21:41:07.795Z,2.41
2022-12-26T21:43:35.242Z,2.41
2022-12-26T21:46:06.778Z,2.41
2022-12-26T21:48:33.651Z,2.41
2022-12-26T21:51:00.223Z,2.44
2022-12-26T21:53:28.197Z,2.43
2022-12-26T21:55:54.787Z,2.39
2022-12-26T21:58:21.572Z,2.38
2022-12-26T22:00:48.342Z,2.26
2022-12-26T22:03:14.971Z,2.18
2022-12-26T22:05:41.797Z,2.09
2022-12-26T22:08:10.007Z,2.02
2022-12-26T22:10:41.849Z,1.99
2022-12-26T22:13:09.076Z,1.95
2022-12-26T22:15:41.683Z,1.82
2022-12-26T22:18:08.489Z,1.71
2022-12-26T22:20:35.561Z,1.71
2022-12-26T22:23:02.369Z,1.71
2022-12-26T22:25:29.164Z,1.70
2022-12-26T22:27:58.702Z,1.71
2022-12-26T22:30:25.476Z,1.61
2022-12-26T22:32:52.006Z,1.60
2022-12-26T22:35:19.073Z,1.47
2022-12-26T22:37:45.695Z,1.41
2022-12-26T22:40:12.644Z,1.34
2022-12-26T22:42:39.265Z,1.27
2022-12-26T22:45:08.570Z,1.28
2022-12-26T22:47:35.285Z,1.21
2022-12-26T22:50:01.983Z,1.14
2022-12-26T22:52:28.716Z,1.08
2022-12-26T22:54:55.292Z,1.07
2022-12-26T22:57:21.809Z,1.04
2022-12-26T23:02:36.466Z,1.00
2022-12-26T23:05:03.952Z,0.98
2022-12-26T23:07:31.107Z,0.94
2022-12-26T23:09:58.075Z,0.99
2022-12-26T23:12:25.284Z,0.95
2022-12-26T23:14:52.081Z,0.91
2022-12-26T23:17:18.862Z,0.84
2022-12-26T23:19:50.200Z,0.83
2022-12-26T23:22:17.244Z,0.78
2022-12-26T23:24:43.899Z,0.71
2022-12-26T23:27:12.100Z,0.70
2022-12-26T23:29:38.699Z,0.70
2022-12-26T23:32:06.223Z,0.69
2022-12-26T23:34:32.940Z,0.64
2022-12-26T23:37:01.354Z,0.62
2022-12-26T23:39:28.457Z,0.56
2022-12-26T23:41:55.091Z,0.56
2022-12-26T23:44:21.618Z,0.53
2022-12-26T23:46:48.427Z,0.49
2022-12-26T23:49:15.939Z,0.51
2022-12-26T23:51:43.155Z,0.49
2022-12-26T23:54:11.178Z,0.44
2022-12-26T23:56:37.779Z,0.45
2022-12-26T23:59:05.240Z,0.47
